createdAt,value
2019-01-08T00:01:14.026Z,6.83
2019-01-08T00:03:42.282Z,6.20
2019-01-08T00:06:10.568Z,6.08
2019-01-08T00:08:38.823Z,7.00
2019-01-08T00:11:07.091Z,6.17
2019-01-08T00:13:35.348Z,6.23
2019-01-08T00:16:03.618Z,6.23
2019-01-08T00:18:31.890Z,5.87
2019-01-08T00:21:00.163Z,6.23
2019-01-08T00:23:28.442Z,5.95
2019-01-08T00:25:56.723Z,6.73
2019-01-08T00:28:25.021Z,5.80
2019-01-08T00:30:53.283Z,7.10
2019-01-08T00:33:21.573Z,6.00
2019-01-08T00:35:49.905Z,5.20
2019-01-08T00:38:18.139Z,7.28
2019-01-08T00:40:46.407Z,5.47
2019-01-08T00:43:14.665Z,6.13
2019-01-08T00:45:42.955Z,6.00
2019-01-08T00:48:11.222Z,6.50
2019-01-08T00:50:39.482Z,5.67
2019-01-08T00:53:07.763Z,6.00
2019-01-08T00:55:36.016Z,5.00
2019-01-08T00:58:04.276Z,7.33
2019-01-08T01:00:32.552Z,6.35
2019-01-08T01:03:00.818Z,4.27
2019-01-08T01:05:29.067Z,6.40
2019-01-08T01:07:57.341Z,6.47
2019-01-08T01:10:25.606Z,6.00
2019-01-08T01:12:53.883Z,5.83
2019-01-08T01:15:22.140Z,5.73
2019-01-08T01:17:50.406Z,5.47
2019-01-08T01:20:18.674Z,6.77
2019-01-08T01:22:46.928Z,5.67
2019-01-08T01:25:15.195Z,5.40
2019-01-08T01:27:43.456Z,4.60
2019-01-08T01:30:11.817Z,4.40
2019-01-08T01:32:40.082Z,5.47
2019-01-08T01:35:08.406Z,5.25
2019-01-08T01:37:36.682Z,4.97
2019-01-08T01:40:44.991Z,5.23
2019-01-08T01:43:13.251Z,6.90
2019-01-08T01:45:41.521Z,6.30
2019-01-08T01:48:09.781Z,8.50
2019-01-08T01:50:38.142Z,5.70
2019-01-08T01:53:06.393Z,7.50
2019-01-08T01:55:34.653Z,6.35
2019-01-08T01:58:03.915Z,6.50
2019-01-08T02:00:32.171Z,5.20
2019-01-08T02:03:00.424Z,6.30
2019-01-08T02:05:28.695Z,6.08
2019-01-08T02:07:56.949Z,6.17
2019-01-08T02:10:25.204Z,5.95
2019-01-08T02:12:53.472Z,5.77
2019-01-08T02:15:21.725Z,6.07
2019-01-08T02:17:49.994Z,6.53
2019-01-08T02:20:18.245Z,4.37
2019-01-08T02:22:46.504Z,6.30
2019-01-08T02:25:14.769Z,6.50
2019-01-08T02:27:43.035Z,4.87
2019-01-08T02:30:11.322Z,5.50
2019-01-08T02:32:39.586Z,5.83
2019-01-08T02:35:07.865Z,5.63
2019-01-08T02:37:36.132Z,4.60
2019-01-08T02:43:12.472Z,4.67
2019-01-08T02:45:40.728Z,6.37
2019-01-08T02:48:08.985Z,4.92
2019-01-08T02:50:37.254Z,5.60
2019-01-08T02:53:05.510Z,5.30
2019-01-08T02:55:33.786Z,4.87
2019-01-08T02:58:02.046Z,5.03
2019-01-08T03:00:30.314Z,4.53
2019-01-08T03:02:58.580Z,4.70
2019-01-08T03:05:26.864Z,3.90
2019-01-08T03:07:55.140Z,3.80
2019-01-08T03:10:23.390Z,4.13
2019-01-08T03:12:51.669Z,2.90
2019-01-08T03:15:19.918Z,3.00
2019-01-08T03:17:48.177Z,3.23
2019-01-08T03:20:16.463Z,3.60
2019-01-08T03:22:44.691Z,5.97
2019-01-08T03:25:12.960Z,4.45
2019-01-08T03:27:41.220Z,5.12
2019-01-08T03:30:09.533Z,5.97
2019-01-08T03:32:37.810Z,5.92
2019-01-08T03:35:06.128Z,5.05
2019-01-08T03:37:34.396Z,3.70
2019-01-08T03:40:02.669Z,4.20
2019-01-08T03:42:30.973Z,5.15
2019-01-08T03:44:59.215Z,7.62
2019-01-08T03:47:27.474Z,4.40
2019-01-08T03:49:55.741Z,6.23
2019-01-08T03:52:24.016Z,5.90
2019-01-08T03:54:52.303Z,4.87
2019-01-08T03:57:20.562Z,5.70
2019-01-08T03:59:48.812Z,5.67
2019-01-08T04:02:17.075Z,5.00
2019-01-08T04:04:45.337Z,7.00
2019-01-08T04:07:13.611Z,4.83
2019-01-08T04:09:41.871Z,4.20
2019-01-08T04:12:10.142Z,4.83
2019-01-08T04:14:38.403Z,3.40
2019-01-08T04:17:06.672Z,3.40
2019-01-08T04:19:34.952Z,4.60
2019-01-08T04:22:03.212Z,4.27
2019-01-08T04:24:31.486Z,6.53
2019-01-08T04:26:59.753Z,4.77
2019-01-08T04:29:28.101Z,6.07
2019-01-08T04:31:56.360Z,5.47
2019-01-08T04:34:24.616Z,5.97
2019-01-08T04:36:52.879Z,6.10
2019-01-08T04:39:21.143Z,4.50
2019-01-08T04:41:49.411Z,5.60
2019-01-08T04:44:17.674Z,5.03
2019-01-08T04:46:45.934Z,4.73
2019-01-08T04:49:14.198Z,5.37
2019-01-08T04:51:42.479Z,6.00
2019-01-08T04:54:10.746Z,5.37
2019-01-08T04:56:39.016Z,6.23
2019-01-08T04:59:07.286Z,6.30
2019-01-08T05:01:35.555Z,7.00
2019-01-08T05:04:03.809Z,5.10
2019-01-08T05:06:32.060Z,5.80
2019-01-08T05:09:00.333Z,5.83
2019-01-08T05:11:28.592Z,5.53
2019-01-08T05:13:56.870Z,7.25
2019-01-08T05:16:25.135Z,5.28
2019-01-08T05:18:53.420Z,5.83
2019-01-08T05:21:21.721Z,6.28
2019-01-08T05:23:50.010Z,6.55
2019-01-08T05:26:18.271Z,5.20
2019-01-08T05:28:46.540Z,3.90
2019-01-08T05:31:14.804Z,3.10
2019-01-08T05:33:43.085Z,5.40
2019-01-08T05:36:11.349Z,8.23
2019-01-08T05:38:39.613Z,5.03
2019-01-08T05:41:07.893Z,5.43
2019-01-08T05:43:36.158Z,4.33
2019-01-08T05:46:04.430Z,4.05
2019-01-08T05:48:32.686Z,5.23
2019-01-08T05:51:00.955Z,4.90
2019-01-08T05:53:29.211Z,5.70
2019-01-08T05:55:57.480Z,4.37
2019-01-08T05:58:25.760Z,3.87
2019-01-08T06:00:54.036Z,5.53
2019-01-08T06:03:22.301Z,6.20
2019-01-08T06:05:50.581Z,4.13
2019-01-08T06:08:18.837Z,5.80
2019-01-08T06:10:47.105Z,4.97
2019-01-08T06:13:15.377Z,6.20
2019-01-08T06:15:43.650Z,5.78
2019-01-08T06:18:31.268Z,6.40
2019-01-08T06:20:59.561Z,4.07
2019-01-08T06:23:27.803Z,4.73
2019-01-08T06:25:56.060Z,6.35
2019-01-08T06:28:24.330Z,5.83
2019-01-08T06:30:52.679Z,6.07
2019-01-08T06:33:20.933Z,7.60
2019-01-08T06:35:49.188Z,5.93
2019-01-08T06:38:17.446Z,7.40
2019-01-08T06:40:45.727Z,7.40
2019-01-08T06:43:13.980Z,7.10
2019-01-08T06:45:42.255Z,6.60
2019-01-08T06:48:10.543Z,8.00
2019-01-08T06:50:38.816Z,6.07
2019-01-08T06:53:07.074Z,6.23
2019-01-08T06:55:35.336Z,8.13
2019-01-08T06:58:03.607Z,7.15
2019-01-08T07:00:33.344Z,8.25
2019-01-08T07:03:01.834Z,7.00
2019-01-08T07:05:30.097Z,6.62
2019-01-08T07:07:58.353Z,6.97
2019-01-08T07:10:26.603Z,7.42
2019-01-08T07:12:54.872Z,6.63
2019-01-08T07:15:23.139Z,6.90
2019-01-08T07:17:51.399Z,6.00
2019-01-08T07:20:19.671Z,7.40
2019-01-08T07:23:07.276Z,5.70
2019-01-08T07:25:42.123Z,7.10
2019-01-08T07:28:05.523Z,5.03
2019-01-08T07:30:41.261Z,5.10
2019-01-08T07:33:03.776Z,4.30
2019-01-08T07:35:32.047Z,4.37
2019-01-08T07:38:00.304Z,5.20
2019-01-08T07:40:28.577Z,4.87
2019-01-08T07:42:56.874Z,4.80
2019-01-08T07:45:25.139Z,5.00
2019-01-08T07:47:53.434Z,4.97
2019-01-08T07:50:21.690Z,4.97
2019-01-08T07:52:49.936Z,4.27
2019-01-08T07:55:18.212Z,4.50
2019-01-08T07:57:46.467Z,4.30
2019-01-08T08:00:14.745Z,4.57
2019-01-08T08:02:43.013Z,3.70
2019-01-08T08:05:11.273Z,3.73
2019-01-08T08:07:39.520Z,5.43
2019-01-08T08:10:47.814Z,4.95
2019-01-08T08:13:16.099Z,5.35
2019-01-08T08:15:44.358Z,4.57
2019-01-08T08:18:12.632Z,4.30
2019-01-08T08:20:40.906Z,4.80
2019-01-08T08:23:09.181Z,4.50
2019-01-08T08:25:37.457Z,4.63
2019-01-08T08:28:05.737Z,4.65
2019-01-08T08:30:34.009Z,5.47
2019-01-08T08:33:02.309Z,5.20
2019-01-08T08:35:30.580Z,4.27
2019-01-08T08:37:58.831Z,3.33
2019-01-08T08:40:27.085Z,4.97
2019-01-08T08:42:55.349Z,4.23
2019-01-08T08:45:23.615Z,7.05
2019-01-08T08:47:51.873Z,5.83
2019-01-08T08:50:20.130Z,5.80
2019-01-08T08:52:48.435Z,4.43
2019-01-08T08:55:16.682Z,4.43
2019-01-08T08:57:44.935Z,5.73
2019-01-08T09:00:13.229Z,5.70
2019-01-08T09:02:41.492Z,6.40
2019-01-08T09:05:09.833Z,5.87
2019-01-08T09:07:38.017Z,5.63
2019-01-08T09:10:06.344Z,4.53
2019-01-08T09:12:34.627Z,5.43
2019-01-08T09:15:02.903Z,5.80
2019-01-08T09:17:31.163Z,6.20
2019-01-08T09:19:59.502Z,7.03
2019-01-08T09:22:27.766Z,5.83
2019-01-08T09:24:56.101Z,4.53
2019-01-08T09:27:24.379Z,5.50
2019-01-08T09:29:52.626Z,4.60
2019-01-08T09:32:20.917Z,4.70
2019-01-08T09:34:49.172Z,4.50
2019-01-08T09:37:17.446Z,4.60
2019-01-08T09:39:45.710Z,5.50
2019-01-08T09:42:13.991Z,4.13
2019-01-08T09:44:42.245Z,4.93
2019-01-08T09:47:10.506Z,4.07
2019-01-08T09:49:38.800Z,3.83
2019-01-08T09:52:07.148Z,4.57
2019-01-08T09:54:35.418Z,4.42
2019-01-08T09:57:03.700Z,4.55
2019-01-08T09:59:31.970Z,6.33
2019-01-08T10:02:00.238Z,5.95
2019-01-08T10:04:28.494Z,3.65
2019-01-08T10:06:56.761Z,4.45
2019-01-08T10:09:25.022Z,3.63
2019-01-08T10:11:53.281Z,3.92
2019-01-08T10:14:21.551Z,3.63
2019-01-08T10:16:49.822Z,4.07
2019-01-08T10:19:18.105Z,4.33
2019-01-08T10:21:46.347Z,4.70
2019-01-08T10:24:14.627Z,4.13
2019-01-08T10:26:42.890Z,2.67
2019-01-08T10:29:11.161Z,2.27
2019-01-08T10:31:39.423Z,1.80
2019-01-08T10:34:07.701Z,2.00
2019-01-08T10:36:35.956Z,3.33
2019-01-08T10:39:37.752Z,4.10
2019-01-08T10:42:06.015Z,3.27
2019-01-08T10:44:34.262Z,3.23
2019-01-08T10:47:02.519Z,3.30
2019-01-08T10:49:30.773Z,2.50
2019-01-08T10:51:59.019Z,3.00
2019-01-08T10:54:27.289Z,2.07
2019-01-08T10:56:55.551Z,2.57
2019-01-08T10:59:23.794Z,3.52
2019-01-08T11:01:52.062Z,4.90
2019-01-08T11:04:20.318Z,3.90
2019-01-08T11:06:48.653Z,3.37
2019-01-08T11:09:16.912Z,4.20
2019-01-08T11:11:45.179Z,4.67
2019-01-08T11:14:13.459Z,3.87
2019-01-08T11:16:41.722Z,6.03
2019-01-08T11:19:09.986Z,5.47
2019-01-08T11:21:38.354Z,4.22
2019-01-08T11:24:06.650Z,3.63
2019-01-08T11:26:34.905Z,6.15
2019-01-08T11:29:03.157Z,6.65
2019-01-08T11:31:31.418Z,6.17
2019-01-08T11:33:59.697Z,5.42
2019-01-08T11:36:27.956Z,5.12
2019-01-08T11:38:56.219Z,5.10
2019-01-08T11:41:24.482Z,4.77
2019-01-08T11:43:52.738Z,5.53
2019-01-08T11:46:21.004Z,5.50
2019-01-08T11:48:49.261Z,5.27
2019-01-08T11:51:17.527Z,5.33
2019-01-08T11:53:45.776Z,5.12
2019-01-08T11:58:54.856Z,4.33
2019-01-08T12:01:23.127Z,6.75
2019-01-08T12:03:51.422Z,6.67
2019-01-08T12:06:19.666Z,5.70
2019-01-08T12:08:47.917Z,5.00
2019-01-08T12:11:16.169Z,5.60
2019-01-08T12:13:45.064Z,6.60
2019-01-08T12:16:13.345Z,9.97
2019-01-08T12:18:41.617Z,5.50
2019-01-08T12:21:09.900Z,5.93
2019-01-08T12:23:38.908Z,5.95
2019-01-08T12:26:07.174Z,5.60
2019-01-08T12:28:35.446Z,5.83
2019-01-08T12:31:03.713Z,4.47
2019-01-08T12:33:31.973Z,5.73
2019-01-08T12:36:00.220Z,6.57
2019-01-08T12:38:28.492Z,4.63
2019-01-08T12:40:56.735Z,5.70
2019-01-08T12:43:24.999Z,5.63
2019-01-08T12:45:53.252Z,6.53
2019-01-08T12:48:21.532Z,5.58
2019-01-08T12:50:49.793Z,6.55
2019-01-08T12:53:18.072Z,6.70
2019-01-08T12:55:46.335Z,5.55
2019-01-08T12:58:14.601Z,6.87
2019-01-08T13:00:42.853Z,5.90
2019-01-08T13:03:11.107Z,5.87
2019-01-08T13:05:39.363Z,4.50
2019-01-08T13:08:07.675Z,6.92
2019-01-08T13:10:35.940Z,5.42
2019-01-08T13:13:04.266Z,6.22
2019-01-08T13:15:32.527Z,7.20
2019-01-08T13:18:00.789Z,6.70
2019-01-08T13:20:29.055Z,5.90
2019-01-08T13:22:57.332Z,5.60
2019-01-08T13:25:25.585Z,3.60
2019-01-08T13:27:53.849Z,3.75
2019-01-08T13:30:22.114Z,3.65
2019-01-08T13:32:50.406Z,2.60
2019-01-08T13:35:18.657Z,2.63
2019-01-08T13:37:46.943Z,2.73
2019-01-08T13:40:15.192Z,2.43
2019-01-08T13:42:43.487Z,1.77
2019-01-08T13:45:11.780Z,2.47
2019-01-08T13:47:40.024Z,2.53
2019-01-08T13:50:41.910Z,2.53
2019-01-08T13:53:10.186Z,2.50
2019-01-08T13:55:38.435Z,2.57
2019-01-08T13:58:06.692Z,2.37
2019-01-08T14:00:34.950Z,2.33
2019-01-08T14:03:03.207Z,2.20
2019-01-08T14:05:31.572Z,2.65
2019-01-08T14:07:59.812Z,2.07
2019-01-08T14:10:28.052Z,2.07
2019-01-08T14:12:56.318Z,1.80
2019-01-08T14:15:24.572Z,2.03
2019-01-08T14:17:52.814Z,2.53
2019-01-08T14:20:21.086Z,2.10
2019-01-08T14:22:49.345Z,1.50
2019-01-08T14:25:17.593Z,1.37
2019-01-08T14:27:58.061Z,1.57
2019-01-08T14:30:26.311Z,1.90
2019-01-08T14:32:54.574Z,1.70
2019-01-08T14:35:22.855Z,1.30
2019-01-08T14:37:51.121Z,1.30
2019-01-08T14:40:19.361Z,1.53
2019-01-08T14:42:47.618Z,1.27
2019-01-08T14:45:15.862Z,1.00
2019-01-08T14:47:44.108Z,0.93
2019-01-08T14:50:12.441Z,0.93
2019-01-08T14:52:40.686Z,0.93
2019-01-08T14:55:08.937Z,0.87
2019-01-08T14:57:37.208Z,1.13
2019-01-08T15:00:45.481Z,1.22
2019-01-08T15:03:13.761Z,0.85
2019-01-08T15:05:41.991Z,1.47
2019-01-08T15:08:10.238Z,0.90
2019-01-08T15:10:38.501Z,1.00
2019-01-08T15:13:06.822Z,1.00
2019-01-08T15:15:35.077Z,1.37
2019-01-08T15:18:03.320Z,1.20
2019-01-08T15:20:31.572Z,1.20
2019-01-08T15:22:59.880Z,1.10
2019-01-08T15:25:28.153Z,1.00
2019-01-08T15:27:56.428Z,1.00
2019-01-08T15:30:24.666Z,1.10
2019-01-08T15:32:58.204Z,0.80
2019-01-08T15:35:22.895Z,1.02
2019-01-08T15:37:51.134Z,1.30
2019-01-08T15:40:19.367Z,1.23
2019-01-08T15:42:47.620Z,1.00
2019-01-08T15:45:15.864Z,1.03
2019-01-08T15:47:44.107Z,1.00
2019-01-08T15:50:12.349Z,1.10
2019-01-08T15:52:40.610Z,1.00
2019-01-08T15:55:08.857Z,1.27
2019-01-08T15:57:37.124Z,1.20
2019-01-08T16:00:45.411Z,1.15
2019-01-08T16:03:13.656Z,1.10
2019-01-08T16:05:42.404Z,0.90
2019-01-08T16:08:10.644Z,1.30
2019-01-08T16:10:38.884Z,0.90
2019-01-08T16:13:07.143Z,1.10
2019-01-08T16:18:43.437Z,1.50
2019-01-08T16:21:11.687Z,1.40
2019-01-08T16:23:40.344Z,1.02
2019-01-08T16:26:08.782Z,1.57
2019-01-08T16:28:37.022Z,1.40
2019-01-08T16:31:05.293Z,1.60
2019-01-08T16:33:33.549Z,1.80
2019-01-08T16:36:01.798Z,1.23
2019-01-08T16:38:30.148Z,1.77
2019-01-08T16:40:58.431Z,1.75
2019-01-08T16:43:26.664Z,1.80
2019-01-08T16:45:54.917Z,1.80
2019-01-08T16:48:23.188Z,1.60
2019-01-08T16:50:51.408Z,1.62
2019-01-08T16:53:19.654Z,1.60
2019-01-08T16:55:47.999Z,1.22
2019-01-08T16:58:16.410Z,1.70
2019-01-08T17:00:44.603Z,1.40
2019-01-08T17:03:12.855Z,1.80
2019-01-08T17:05:41.101Z,1.90
2019-01-08T17:08:09.367Z,1.10
2019-01-08T17:10:37.816Z,1.00
2019-01-08T17:13:06.026Z,1.17
2019-01-08T17:15:34.294Z,1.40
2019-01-08T17:18:02.553Z,1.03
2019-01-08T17:20:30.814Z,1.40
2019-01-08T17:22:59.058Z,1.00
2019-01-08T17:25:27.302Z,1.20
2019-01-08T17:27:55.558Z,1.10
2019-01-08T17:30:23.795Z,0.90
2019-01-08T17:32:52.057Z,1.37
2019-01-08T17:35:20.313Z,1.00
2019-01-08T17:37:48.571Z,1.20
2019-01-08T17:40:16.807Z,1.23
2019-01-08T17:42:45.061Z,1.00
2019-01-08T17:45:13.350Z,0.93
2019-01-08T17:47:41.595Z,1.65
2019-01-08T17:50:09.851Z,1.30
2019-01-08T17:52:38.097Z,0.97
2019-01-08T17:55:46.379Z,0.93
2019-01-08T17:58:34.947Z,1.20
2019-01-08T18:01:37.145Z,1.95
2019-01-08T18:04:05.418Z,0.90
2019-01-08T18:06:33.683Z,2.08
2019-01-08T18:09:02.002Z,1.07
2019-01-08T18:11:30.270Z,1.50
2019-01-08T18:13:58.518Z,1.85
2019-01-08T18:16:26.765Z,0.97
2019-01-08T18:18:55.028Z,1.20
2019-01-08T18:21:23.275Z,1.07
2019-01-08T18:23:51.523Z,1.47
2019-01-08T18:26:39.107Z,1.10
2019-01-08T18:29:07.383Z,1.20
2019-01-08T18:31:35.601Z,1.50
2019-01-08T18:34:03.872Z,1.03
2019-01-08T18:36:32.119Z,1.37
2019-01-08T18:39:03.512Z,1.00
2019-01-08T18:41:31.794Z,0.90
2019-01-08T18:44:00.029Z,1.40
2019-01-08T18:46:28.296Z,1.00
2019-01-08T18:48:56.571Z,0.80
2019-01-08T18:51:24.812Z,0.88
2019-01-08T18:53:53.093Z,1.57
2019-01-08T18:56:22.457Z,0.90
2019-01-08T18:58:50.660Z,1.00
2019-01-08T19:01:18.956Z,1.32
2019-01-08T19:03:47.192Z,1.75
2019-01-08T19:06:15.452Z,1.12
2019-01-08T19:09:22.563Z,1.35
2019-01-08T19:11:51.134Z,0.80
2019-01-08T19:14:59.450Z,0.87
2019-01-08T19:17:27.712Z,0.90
2019-01-08T19:19:55.966Z,0.93
2019-01-08T19:22:24.202Z,1.00
2019-01-08T19:24:52.660Z,1.27
2019-01-08T19:27:20.899Z,0.87
2019-01-08T19:29:49.155Z,0.80
2019-01-08T19:32:22.232Z,1.17
2019-01-08T19:35:13.878Z,0.93
2019-01-08T19:37:21.081Z,1.15
2019-01-08T19:39:49.551Z,1.17
2019-01-08T19:42:17.799Z,1.73
2019-01-08T19:45:06.926Z,1.00
2019-01-08T19:47:35.239Z,1.00
2019-01-08T19:53:11.546Z,1.00
2019-01-08T19:55:39.847Z,1.10
2019-01-08T19:58:08.541Z,1.52
2019-01-08T20:00:36.754Z,1.70
2019-01-08T20:03:04.963Z,0.77
2019-01-08T20:05:33.230Z,1.27
2019-01-08T20:08:01.484Z,1.00
2019-01-08T20:10:29.738Z,1.10
2019-01-08T20:12:58.090Z,1.27
2019-01-08T20:15:26.275Z,0.77
2019-01-08T20:17:54.551Z,1.17
2019-01-08T20:20:23.143Z,1.50
2019-01-08T20:22:51.396Z,0.90
2019-01-08T20:25:19.649Z,1.27
2019-01-08T20:27:47.952Z,0.93
2019-01-08T20:30:16.238Z,1.40
2019-01-08T20:32:44.517Z,1.03
2019-01-08T20:35:12.857Z,1.03
2019-01-08T20:37:41.117Z,1.10
2019-01-08T20:40:10.140Z,1.00
2019-01-08T20:42:39.373Z,1.20
2019-01-08T20:45:20.618Z,1.67
2019-01-08T20:47:48.894Z,1.50
2019-01-08T20:50:17.146Z,1.60
2019-01-08T20:52:45.425Z,1.35
2019-01-08T20:55:13.679Z,1.33
2019-01-08T20:57:41.941Z,1.40
2019-01-08T21:00:10.341Z,1.40
2019-01-08T21:02:38.594Z,1.10
2019-01-08T21:05:06.850Z,1.37
2019-01-08T21:07:35.100Z,1.20
2019-01-08T21:13:11.427Z,1.13
2019-01-08T21:15:39.679Z,1.40
2019-01-08T21:18:07.972Z,0.90
2019-01-08T21:20:36.227Z,1.30
2019-01-08T21:23:04.469Z,1.27
2019-01-08T21:25:32.765Z,2.03
2019-01-08T21:28:00.989Z,1.47
2019-01-08T21:30:29.260Z,1.55
2019-01-08T21:32:57.530Z,1.87
2019-01-08T21:35:25.798Z,1.60
2019-01-08T21:37:54.048Z,1.47
2019-01-08T21:40:22.295Z,1.27
2019-01-08T21:42:50.550Z,1.43
2019-01-08T21:45:18.808Z,1.80
2019-01-08T21:47:47.076Z,1.60
2019-01-08T21:50:15.329Z,1.10
2019-01-08T21:52:43.743Z,1.73
2019-01-08T21:55:12.007Z,1.90
2019-01-08T21:57:40.273Z,3.90
2019-01-08T22:00:48.566Z,1.70
2019-01-08T22:03:16.818Z,1.75
2019-01-08T22:05:45.074Z,1.67
2019-01-08T22:08:13.326Z,2.50
2019-01-08T22:10:41.579Z,1.53
2019-01-08T22:13:09.913Z,1.47
2019-01-08T22:15:38.266Z,1.40
2019-01-08T22:18:06.514Z,1.90
2019-01-08T22:20:34.767Z,1.55
2019-01-08T22:23:03.096Z,1.40
2019-01-08T22:25:31.342Z,1.60
2019-01-08T22:27:59.617Z,1.47
2019-01-08T22:30:27.863Z,1.03
2019-01-08T22:32:56.115Z,1.13
2019-01-08T22:35:24.373Z,1.00
2019-01-08T22:37:52.670Z,1.98
2019-01-08T22:40:20.943Z,1.55
2019-01-08T22:42:49.211Z,1.27
2019-01-08T22:45:17.479Z,1.63
2019-01-08T22:47:45.736Z,2.63
2019-01-08T22:50:13.993Z,1.30
2019-01-08T22:52:42.253Z,2.00
2019-01-08T22:55:10.504Z,1.65
2019-01-08T22:57:38.745Z,1.50
2019-01-08T23:00:47.032Z,1.23
2019-01-08T23:03:27.810Z,2.05
2019-01-08T23:05:56.075Z,2.13
2019-01-08T23:08:24.321Z,1.43
2019-01-08T23:10:52.616Z,1.10
2019-01-08T23:13:20.872Z,1.73
2019-01-08T23:15:49.133Z,1.50
2019-01-08T23:18:17.383Z,1.70
2019-01-08T23:20:45.644Z,1.67
2019-01-08T23:23:13.896Z,1.77
2019-01-08T23:25:42.154Z,1.60
2019-01-08T23:28:10.412Z,2.17
2019-01-08T23:30:38.657Z,3.22
2019-01-08T23:33:06.915Z,1.90
2019-01-08T23:35:35.163Z,1.30
2019-01-08T23:38:03.430Z,1.60
2019-01-08T23:40:31.687Z,1.90
2019-01-08T23:42:59.935Z,2.17
2019-01-08T23:45:28.205Z,1.73
2019-01-08T23:47:56.457Z,1.80
2019-01-08T23:50:24.719Z,1.40
2019-01-08T23:53:26.244Z,1.40
2019-01-08T23:56:27.784Z,2.60
2019-01-08T23:58:56.076Z,2.37
